sensor_id;sensor_type;location;lat;lon;timestamp;pressure;altitude;pressure_sealevel;temperature
66113;BMP280;52893;52.870;5.822;2023-04-01T00:00:45;99003.91;;;11.09
66113;BMP280;52893;52.870;5.822;2023-04-01T00:03:14;98998.06;;;11.11
66113;BMP280;52893;52.870;5.822;2023-04-01T00:05:41;98989.50;;;11.12
66113;BMP280;52893;52.870;5.822;2023-04-01T00:08:08;98996.50;;;11.13
66113;BMP280;52893;52.870;5.822;2023-04-01T00:10:35;98980.06;;;11.06
66113;BMP280;52893;52.870;5.822;2023-04-01T00:13:03;98999.66;;;11.15
66113;BMP280;52893;52.870;5.822;2023-04-01T00:15:30;99001.59;;;11.15
66113;BMP280;52893;52.870;5.822;2023-04-01T00:17:57;98999.22;;;11.13
66113;BMP280;52893;52.870;5.822;2023-04-01T00:20:26;98950.56;;;10.86
66113;BMP280;52893;52.870;5.822;2023-04-01T00:22:54;98989.88;;;11.14
66113;BMP280;52893;52.870;5.822;2023-04-01T00:25:22;98985.94;;;11.08
66113;BMP280;52893;52.870;5.822;2023-04-01T00:27:49;98986.00;;;11.15
66113;BMP280;52893;52.870;5.822;2023-04-01T00:30:17;98995.34;;;11.14
66113;BMP280;52893;52.870;5.822;2023-04-01T00:32:44;99000.03;;;11.14
66113;BMP280;52893;52.870;5.822;2023-04-01T00:35:12;98998.88;;;11.15
66113;BMP280;52893;52.870;5.822;2023-04-01T00:37:40;98991.44;;;11.12
66113;BMP280;52893;52.870;5.822;2023-04-01T00:40:22;98993.78;;;11.13
66113;BMP280;52893;52.870;5.822;2023-04-01T00:42:50;98995.72;;;11.13
66113;BMP280;52893;52.870;5.822;2023-04-01T00:45:28;98985.94;;;11.08
66113;BMP280;52893;52.870;5.822;2023-04-01T00:47:58;98992.97;;;11.13
66113;BMP280;52893;52.870;5.822;2023-04-01T00:50:26;98997.69;;;11.12
66113;BMP280;52893;52.870;5.822;2023-04-01T00:52:57;98997.69;;;11.12
66113;BMP280;52893;52.870;5.822;2023-04-01T00:55:27;98992.22;;;11.12
66113;BMP280;52893;52.870;5.822;2023-04-01T00:57:57;98987.09;;;11.07
66113;BMP280;52893;52.870;5.822;2023-04-01T01:00:25;98940.38;;;10.79
66113;BMP280;52893;52.870;5.822;2023-04-01T01:02:52;98999.31;;;11.17
66113;BMP280;52893;52.870;5.822;2023-04-01T01:05:26;98995.78;;;11.16
66113;BMP280;52893;52.870;5.822;2023-04-01T01:08:01;98968.63;;;10.97
66113;BMP280;52893;52.870;5.822;2023-04-01T01:10:33;99001.66;;;11.19
66113;BMP280;52893;52.870;5.822;2023-04-01T01:13:05;98992.97;;;11.13
66113;BMP280;52893;52.870;5.822;2023-04-01T01:15:39;99000.88;;;11.22
66113;BMP280;52893;52.870;5.822;2023-04-01T01:18:16;99007.94;;;11.23
66113;BMP280;52893;52.870;5.822;2023-04-01T01:21:03;98983.22;;;11.08
66113;BMP280;52893;52.870;5.822;2023-04-01T01:26:51;99015.44;;;11.29
66113;BMP280;52893;52.870;5.822;2023-04-01T01:33:22;99019.34;;;11.28
66113;BMP280;52893;52.870;5.822;2023-04-01T01:35:54;99002.53;;;11.26
66113;BMP280;52893;52.870;5.822;2023-04-01T01:38:24;99019.78;;;11.34
66113;BMP280;52893;52.870;5.822;2023-04-01T01:41:04;99017.03;;;11.34
66113;BMP280;52893;52.870;5.822;2023-04-01T01:43:35;99015.88;;;11.35
66113;BMP280;52893;52.870;5.822;2023-04-01T01:46:07;99019.41;;;11.35
66113;BMP280;52893;52.870;5.822;2023-04-01T01:48:36;99020.16;;;11.36
66113;BMP280;52893;52.870;5.822;2023-04-01T01:51:06;99008.78;;;11.27
66113;BMP280;52893;52.870;5.822;2023-04-01T01:53:33;99004.03;;;11.24
66113;BMP280;52893;52.870;5.822;2023-04-01T01:56:02;99028.78;;;11.38
66113;BMP280;52893;52.870;5.822;2023-04-01T01:58:35;99030.38;;;11.39
66113;BMP280;52893;52.870;5.822;2023-04-01T02:01:11;99002.47;;;11.23
66113;BMP280;52893;52.870;5.822;2023-04-01T02:03:41;99029.22;;;11.40
66113;BMP280;52893;52.870;5.822;2023-04-01T02:06:13;99035.81;;;11.39
66113;BMP280;52893;52.870;5.822;2023-04-01T02:08:43;99033.09;;;11.39
66113;BMP280;52893;52.870;5.822;2023-04-01T02:11:13;99018.53;;;11.28
66113;BMP280;52893;52.870;5.822;2023-04-01T02:13:48;99042.44;;;11.38
66113;BMP280;52893;52.870;5.822;2023-04-01T02:16:18;99042.41;;;11.34
66113;BMP280;52893;52.870;5.822;2023-04-01T02:18:49;99050.22;;;11.36
66113;BMP280;52893;52.870;5.822;2023-04-01T02:21:24;99052.94;;;11.36
66113;BMP280;52893;52.870;5.822;2023-04-01T02:23:53;99057.69;;;11.39
66113;BMP280;52893;52.870;5.822;2023-04-01T02:26:22;99058.03;;;11.37
66113;BMP280;52893;52.870;5.822;2023-04-01T02:28:53;99054.16;;;11.38
66113;BMP280;52893;52.870;5.822;2023-04-01T02:31:22;99056.09;;;11.38
66113;BMP280;52893;52.870;5.822;2023-04-01T02:33:51;99063.13;;;11.39
66113;BMP280;52893;52.870;5.822;2023-04-01T02:36:19;99065.09;;;11.38
66113;BMP280;52893;52.870;5.822;2023-04-01T02:38:48;99061.13;;;11.36
66113;BMP280;52893;52.870;5.822;2023-04-01T02:41:16;99072.84;;;11.36
66113;BMP280;52893;52.870;5.822;2023-04-01T02:43:43;99051.69;;;11.26
66113;BMP280;52893;52.870;5.822;2023-04-01T02:46:12;99074.41;;;11.34
66113;BMP280;52893;52.870;5.822;2023-04-01T02:48:39;99075.53;;;11.33
66113;BMP280;52893;52.870;5.822;2023-04-01T02:51:08;99081.78;;;11.33
66113;BMP280;52893;52.870;5.822;2023-04-01T02:53:35;99066.47;;;11.25
66113;BMP280;52893;52.870;5.822;2023-04-01T02:56:04;99086.47;;;11.33
66113;BMP280;52893;52.870;5.822;2023-04-01T02:58:31;99078.63;;;11.28
66113;BMP280;52893;52.870;5.822;2023-04-01T03:00:59;99056.97;;;11.12
66113;BMP280;52893;52.870;5.822;2023-04-01T03:03:26;99093.50;;;11.34
66113;BMP280;52893;52.870;5.822;2023-04-01T03:05:53;99079.03;;;11.30
66113;BMP280;52893;52.870;5.822;2023-04-01T03:08:21;99098.59;;;11.35
66113;BMP280;52893;52.870;5.822;2023-04-01T03:10:49;99096.66;;;11.36
66113;BMP280;52893;52.870;5.822;2023-04-01T03:13:17;99100.16;;;11.36
66113;BMP280;52893;52.870;5.822;2023-04-01T03:15:45;99100.94;;;11.37
66113;BMP280;52893;52.870;5.822;2023-04-01T03:18:12;99108.78;;;11.38
66113;BMP280;52893;52.870;5.822;2023-04-01T03:20:39;99113.09;;;11.39
66113;BMP280;52893;52.870;5.822;2023-04-01T03:23:07;99110.28;;;11.36
66113;BMP280;52893;52.870;5.822;2023-04-01T03:25:34;99110.28;;;11.36
66113;BMP280;52893;52.870;5.822;2023-04-01T03:28:02;99119.69;;;11.35
66113;BMP280;52893;52.870;5.822;2023-04-01T03:30:31;99116.94;;;11.35
66113;BMP280;52893;52.870;5.822;2023-04-01T03:32:58;99128.22;;;11.33
66113;BMP280;52893;52.870;5.822;2023-04-01T03:35:25;99129.78;;;11.31
66113;BMP280;52893;52.870;5.822;2023-04-01T03:37:53;99107.72;;;11.16
66113;BMP280;52893;52.870;5.822;2023-04-01T03:40:21;99133.59;;;11.26
66113;BMP280;52893;52.870;5.822;2023-04-01T03:42:49;99133.97;;;11.25
66113;BMP280;52893;52.870;5.822;2023-04-01T03:45:18;99137.41;;;11.22
66113;BMP280;52893;52.870;5.822;2023-04-01T03:47:46;99147.56;;;11.21
66113;BMP280;52893;52.870;5.822;2023-04-01T03:50:14;99146.03;;;11.20
66113;BMP280;52893;52.870;5.822;2023-04-01T03:52:41;99149.13;;;11.19
66113;BMP280;52893;52.870;5.822;2023-04-01T03:55:09;99153.00;;;11.18
66113;BMP280;52893;52.870;5.822;2023-04-01T03:57:38;99154.16;;;11.16
66113;BMP280;52893;52.870;5.822;2023-04-01T04:00:15;99158.38;;;11.14
66113;BMP280;52893;52.870;5.822;2023-04-01T04:02:46;99157.97;;;11.12
66113;BMP280;52893;52.870;5.822;2023-04-01T04:05:19;99159.50;;;11.09
66113;BMP280;52893;52.870;5.822;2023-04-01T04:07:47;99159.88;;;11.08
66113;BMP280;52893;52.870;5.822;2023-04-01T04:10:14;99164.53;;;11.07
66113;BMP280;52893;52.870;5.822;2023-04-01T04:12:41;99157.84;;;11.01
66113;BMP280;52893;52.870;5.822;2023-04-01T04:15:10;99166.84;;;11.05
66113;BMP280;52893;52.870;5.822;2023-04-01T04:17:37;99168.03;;;11.04
66113;BMP280;52893;52.870;5.822;2023-04-01T04:20:07;99166.44;;;11.03
66113;BMP280;52893;52.870;5.822;2023-04-01T04:22:35;99175.00;;;11.02
66113;BMP280;52893;52.870;5.822;2023-04-01T04:25:05;99174.22;;;11.01
66113;BMP280;52893;52.870;5.822;2023-04-01T04:27:33;99178.53;;;11.02
66113;BMP280;52893;52.870;5.822;2023-04-01T04:30:08;99181.63;;;11.01
66113;BMP280;52893;52.870;5.822;2023-04-01T04:32:36;99181.25;;;11.02
66113;BMP280;52893;52.870;5.822;2023-04-01T04:35:06;99197.22;;;11.00
66113;BMP280;52893;52.870;5.822;2023-04-01T04:37:34;99190.47;;;10.94
66113;BMP280;52893;52.870;5.822;2023-04-01T04:40:01;99199.59;;;11.02
66113;BMP280;52893;52.870;5.822;2023-04-01T04:42:30;99206.97;;;11.01
66113;BMP280;52893;52.870;5.822;2023-04-01T04:45:04;99199.50;;;10.98
66113;BMP280;52893;52.870;5.822;2023-04-01T04:47:32;99208.91;;;11.01
66113;BMP280;52893;52.870;5.822;2023-04-01T04:49:59;99200.59;;;10.94
66113;BMP280;52893;52.870;5.822;2023-04-01T04:52:28;99221.00;;;11.00
66113;BMP280;52893;52.870;5.822;2023-04-01T04:54:55;99180.41;;;10.72
66113;BMP280;52893;52.870;5.822;2023-04-01T04:57:22;99219.75;;;10.97
66113;BMP280;52893;52.870;5.822;2023-04-01T04:59:54;99221.34;;;10.98
66113;BMP280;52893;52.870;5.822;2023-04-01T05:02:44;99203.91;;;10.80
66113;BMP280;52893;52.870;5.822;2023-04-01T05:05:12;99231.84;;;10.96
66113;BMP280;52893;52.870;5.822;2023-04-01T05:07:40;99234.94;;;10.95
66113;BMP280;52893;52.870;5.822;2023-04-01T05:10:08;99239.25;;;10.96
66113;BMP280;52893;52.870;5.822;2023-04-01T05:12:36;99242.38;;;10.98
66113;BMP280;52893;52.870;5.822;2023-04-01T05:15:07;99246.34;;;11.00
66113;BMP280;52893;52.870;5.822;2023-04-01T05:17:35;99223.28;;;10.75
66113;BMP280;52893;52.870;5.822;2023-04-01T05:20:05;99255.63;;;10.96
66113;BMP280;52893;52.870;5.822;2023-04-01T05:22:33;99259.44;;;10.91
66113;BMP280;52893;52.870;5.822;2023-04-01T05:25:01;99263.03;;;10.95
66113;BMP280;52893;52.870;5.822;2023-04-01T05:27:29;99265.75;;;10.95
66113;BMP280;52893;52.870;5.822;2023-04-01T05:29:56;99269.63;;;10.94
66113;BMP280;52893;52.870;5.822;2023-04-01T05:32:42;99275.09;;;10.94
66113;BMP280;52893;52.870;5.822;2023-04-01T05:35:11;99276.69;;;10.95
66113;BMP280;52893;52.870;5.822;2023-04-01T05:37:38;99289.19;;;10.96
66113;BMP280;52893;52.870;5.822;2023-04-01T05:40:09;99287.94;;;10.94
66113;BMP280;52893;52.870;5.822;2023-04-01T05:42:36;99288.44;;;10.99
66113;BMP280;52893;52.870;5.822;2023-04-01T05:45:04;99297.06;;;11.01
66113;BMP280;52893;52.870;5.822;2023-04-01T05:47:52;99299.06;;;11.04
66113;BMP280;52893;52.870;5.822;2023-04-01T05:50:19;99264.78;;;10.84
66113;BMP280;52893;52.870;5.822;2023-04-01T05:52:47;99308.53;;;11.10
66113;BMP280;52893;52.870;5.822;2023-04-01T05:55:16;99306.22;;;11.12
66113;BMP280;52893;52.870;5.822;2023-04-01T05:57:44;99309.78;;;11.16
66113;BMP280;52893;52.870;5.822;2023-04-01T06:00:12;99307.50;;;11.19
66113;BMP280;52893;52.870;5.822;2023-04-01T06:02:40;99300.00;;;11.15
66113;BMP280;52893;52.870;5.822;2023-04-01T06:05:14;99317.72;;;11.25
66113;BMP280;52893;52.870;5.822;2023-04-01T06:07:43;99298.16;;;11.20
66113;BMP280;52893;52.870;5.822;2023-04-01T06:10:14;99309.09;;;11.20
66113;BMP280;52893;52.870;5.822;2023-04-01T06:12:51;99320.50;;;11.29
66113;BMP280;52893;52.870;5.822;2023-04-01T06:15:25;99318.97;;;11.28
66113;BMP280;52893;52.870;5.822;2023-04-01T06:18:03;99341.31;;;11.37
66113;BMP280;52893;52.870;5.822;2023-04-01T06:20:41;99342.16;;;11.41
66113;BMP280;52893;52.870;5.822;2023-04-01T06:23:32;99340.59;;;11.40
66113;BMP280;52893;52.870;5.822;2023-04-01T06:26:12;99342.13;;;11.37
66113;BMP280;52893;52.870;5.822;2023-04-01T06:29:21;99357.81;;;11.44
66113;BMP280;52893;52.870;5.822;2023-04-01T06:32:12;99356.25;;;11.43
66113;BMP280;52893;52.870;5.822;2023-04-01T06:35:12;99362.56;;;11.47
66113;BMP280;52893;52.870;5.822;2023-04-01T06:38:21;99374.31;;;11.51
66113;BMP280;52893;52.870;5.822;2023-04-01T06:40:59;99371.22;;;11.52
66113;BMP280;52893;52.870;5.822;2023-04-01T06:43:41;99383.44;;;11.58
66113;BMP280;52893;52.870;5.822;2023-04-01T06:46:26;99351.94;;;11.42
66113;BMP280;52893;52.870;5.822;2023-04-01T06:49:24;99394.91;;;11.68
66113;BMP280;52893;52.870;5.822;2023-04-01T06:52:40;99390.28;;;11.72
66113;BMP280;52893;52.870;5.822;2023-04-01T06:55:37;99394.22;;;11.74
66113;BMP280;52893;52.870;5.822;2023-04-01T06:58:33;99394.22;;;11.74
66113;BMP280;52893;52.870;5.822;2023-04-01T07:01:03;99401.25;;;11.75
66113;BMP280;52893;52.870;5.822;2023-04-01T07:03:36;99405.16;;;11.74
66113;BMP280;52893;52.870;5.822;2023-04-01T07:06:10;99410.59;;;11.74
66113;BMP280;52893;52.870;5.822;2023-04-01T07:08:49;99416.06;;;11.74
66113;BMP280;52893;52.870;5.822;2023-04-01T07:11:26;99381.00;;;11.53
66113;BMP280;52893;52.870;5.822;2023-04-01T07:14:20;99417.66;;;11.75
66113;BMP280;52893;52.870;5.822;2023-04-01T07:16:51;99418.09;;;11.77
66113;BMP280;52893;52.870;5.822;2023-04-01T07:19:26;99426.31;;;11.77
66113;BMP280;52893;52.870;5.822;2023-04-01T07:22:10;99427.84;;;11.78
66113;BMP280;52893;52.870;5.822;2023-04-01T07:25:03;99433.28;;;11.75
66113;BMP280;52893;52.870;5.822;2023-04-01T07:27:32;99434.91;;;11.79
66113;BMP280;52893;52.870;5.822;2023-04-01T07:30:00;99445.84;;;11.79
66113;BMP280;52893;52.870;5.822;2023-04-01T07:32:34;99451.31;;;11.79
66113;BMP280;52893;52.870;5.822;2023-04-01T07:35:18;99443.06;;;11.76
66113;BMP280;52893;52.870;5.822;2023-04-01T07:37:58;99457.97;;;11.82
66113;BMP280;52893;52.870;5.822;2023-04-01T07:40:38;99465.81;;;11.83
66113;BMP280;52893;52.870;5.822;2023-04-01T07:43:18;99467.41;;;11.84
66113;BMP280;52893;52.870;5.822;2023-04-01T07:46:07;99468.19;;;11.85
66113;BMP280;52893;52.870;5.822;2023-04-01T07:48:46;99472.44;;;11.82
66113;BMP280;52893;52.870;5.822;2023-04-01T07:51:20;99451.09;;;11.65
66113;BMP280;52893;52.870;5.822;2023-04-01T07:53:57;99490.41;;;11.83
66113;BMP280;52893;52.870;5.822;2023-04-01T07:56:32;99494.31;;;11.82
66113;BMP280;52893;52.870;5.822;2023-04-01T07:59:06;99500.50;;;11.79
66113;BMP280;52893;52.870;5.822;2023-04-01T08:01:58;99505.56;;;11.77
66113;BMP280;52893;52.870;5.822;2023-04-01T08:04:43;99517.28;;;11.78
66113;BMP280;52893;52.870;5.822;2023-04-01T08:07:17;99516.19;;;11.82
66113;BMP280;52893;52.870;5.822;2023-04-01T08:10:10;99516.97;;;11.83
66113;BMP280;52893;52.870;5.822;2023-04-01T08:13:10;99521.72;;;11.86
66113;BMP280;52893;52.870;5.822;2023-04-01T08:16:17;99527.22;;;11.89
66113;BMP280;52893;52.870;5.822;2023-04-01T08:18:58;99532.81;;;11.96
66113;BMP280;52893;52.870;5.822;2023-04-01T08:21:32;99539.94;;;12.01
66113;BMP280;52893;52.870;5.822;2023-04-01T08:24:11;99475.25;;;11.63
66113;BMP280;52893;52.870;5.822;2023-04-01T08:26:46;99554.22;;;12.14
66113;BMP280;52893;52.870;5.822;2023-04-01T08:29:19;99553.44;;;12.17
66113;BMP280;52893;52.870;5.822;2023-04-01T08:31:51;99556.19;;;12.17
66113;BMP280;52893;52.870;5.822;2023-04-01T08:34:24;99549.09;;;12.12
66113;BMP280;52893;52.870;5.822;2023-04-01T08:37:00;99518.19;;;11.85
66113;BMP280;52893;52.870;5.822;2023-04-01T08:39:33;99566.84;;;12.22
66113;BMP280;52893;52.870;5.822;2023-04-01T08:42:23;99575.50;;;12.27
66113;BMP280;52893;52.870;5.822;2023-04-01T08:45:25;99576.00;;;12.33
66113;BMP280;52893;52.870;5.822;2023-04-01T08:48:45;99584.25;;;12.36
66113;BMP280;52893;52.870;5.822;2023-04-01T08:51:54;99555.16;;;12.25
66113;BMP280;52893;52.870;5.822;2023-04-01T08:54:44;99587.50;;;12.45
66113;BMP280;52893;52.870;5.822;2023-04-01T08:57:21;99594.22;;;12.48
66113;BMP280;52893;52.870;5.822;2023-04-01T09:00:22;99598.59;;;12.52
66113;BMP280;52893;52.870;5.822;2023-04-01T09:03:22;99602.97;;;12.57
66113;BMP280;52893;52.870;5.822;2023-04-01T09:06:31;99609.63;;;12.60
66113;BMP280;52893;52.870;5.822;2023-04-01T09:09:24;99593.84;;;12.49
66113;BMP280;52893;52.870;5.822;2023-04-01T09:12:15;99617.50;;;12.61
66113;BMP280;52893;52.870;5.822;2023-04-01T09:15:02;99614.75;;;12.61
66113;BMP280;52893;52.870;5.822;2023-04-01T09:17:55;99621.44;;;12.64
66113;BMP280;52893;52.870;5.822;2023-04-01T09:23:30;99626.84;;;12.60
66113;BMP280;52893;52.870;5.822;2023-04-01T09:29:26;99627.16;;;12.55
66113;BMP280;52893;52.870;5.822;2023-04-01T09:32:10;99650.34;;;12.61
66113;BMP280;52893;52.870;5.822;2023-04-01T09:34:52;99644.88;;;12.61
66113;BMP280;52893;52.870;5.822;2023-04-01T09:37:34;99649.28;;;12.69
66113;BMP280;52893;52.870;5.822;2023-04-01T09:40:16;99650.19;;;12.77
66113;BMP280;52893;52.870;5.822;2023-04-01T09:43:01;99657.69;;;12.83
66113;BMP280;52893;52.870;5.822;2023-04-01T09:45:46;99667.91;;;12.86
66113;BMP280;52893;52.870;5.822;2023-04-01T09:48:29;99658.31;;;12.73
66113;BMP280;52893;52.870;5.822;2023-04-01T09:51:17;99671.69;;;12.78
66113;BMP280;52893;52.870;5.822;2023-04-01T09:54:04;99667.41;;;12.77
66113;BMP280;52893;52.870;5.822;2023-04-01T09:56:57;99682.16;;;12.69
66113;BMP280;52893;52.870;5.822;2023-04-01T09:59:49;99680.00;;;12.59
66113;BMP280;52893;52.870;5.822;2023-04-01T10:03:26;99687.72;;;12.53
66113;BMP280;52893;52.870;5.822;2023-04-01T10:12:55;99701.47;;;12.34
66113;BMP280;52893;52.870;5.822;2023-04-01T10:16:09;99709.28;;;12.32
66113;BMP280;52893;52.870;5.822;2023-04-01T10:18:59;99694.28;;;12.23
66113;BMP280;52893;52.870;5.822;2023-04-01T10:21:56;99714.69;;;12.29
66113;BMP280;52893;52.870;5.822;2023-04-01T10:24:53;99720.16;;;12.29
66113;BMP280;52893;52.870;5.822;2023-04-01T10:28:05;99719.44;;;12.32
66113;BMP280;52893;52.870;5.822;2023-04-01T10:31:18;99719.72;;;12.27
66113;BMP280;52893;52.870;5.822;2023-04-01T10:36:51;99726.72;;;12.47
66113;BMP280;52893;52.870;5.822;2023-04-01T10:43:22;99730.44;;;12.58
66113;BMP280;52893;52.870;5.822;2023-04-01T10:46:29;99738.06;;;12.68
66113;BMP280;52893;52.870;5.822;2023-04-01T10:49:24;99727.66;;;12.77
66113;BMP280;52893;52.870;5.822;2023-04-01T10:52:24;99745.63;;;12.78
66113;BMP280;52893;52.870;5.822;2023-04-01T10:55:27;99742.03;;;12.74
66113;BMP280;52893;52.870;5.822;2023-04-01T11:02:00;99752.97;;;12.71
66113;BMP280;52893;52.870;5.822;2023-04-01T11:11:49;99782.25;;;12.47
66113;BMP280;52893;52.870;5.822;2023-04-01T11:20:31;99735.53;;;12.14
66113;BMP280;52893;52.870;5.822;2023-04-01T11:23:12;99790.78;;;12.42
66113;BMP280;52893;52.870;5.822;2023-04-01T11:25:58;99795.47;;;12.42
66113;BMP280;52893;52.870;5.822;2023-04-01T11:32:27;99782.81;;;12.34
66113;BMP280;52893;52.870;5.822;2023-04-01T11:35:06;99804.94;;;12.48
66113;BMP280;52893;52.870;5.822;2023-04-01T11:37:49;99815.53;;;12.49
66113;BMP280;52893;52.870;5.822;2023-04-01T11:40:45;99815.41;;;12.42
66113;BMP280;52893;52.870;5.822;2023-04-01T11:43:34;99798.78;;;12.32
66113;BMP280;52893;52.870;5.822;2023-04-01T11:46:35;99830.69;;;12.43
66113;BMP280;52893;52.870;5.822;2023-04-01T11:49:21;99833.97;;;12.52
66113;BMP280;52893;52.870;5.822;2023-04-01T11:52:16;99843.72;;;12.50
66113;BMP280;52893;52.870;5.822;2023-04-01T11:55:01;99848.75;;;12.48
66113;BMP280;52893;52.870;5.822;2023-04-01T11:57:51;99848.66;;;12.44
66113;BMP280;52893;52.870;5.822;2023-04-01T12:00:35;99860.94;;;12.50
66113;BMP280;52893;52.870;5.822;2023-04-01T12:03:21;99866.41;;;12.50
66113;BMP280;52893;52.870;5.822;2023-04-01T12:05:58;99874.25;;;12.52
66113;BMP280;52893;52.870;5.822;2023-04-01T12:08:39;99860.56;;;12.52
66113;BMP280;52893;52.870;5.822;2023-04-01T12:11:16;99879.50;;;12.61
66113;BMP280;52893;52.870;5.822;2023-04-01T12:13:50;99846.34;;;12.46
66113;BMP280;52893;52.870;5.822;2023-04-01T12:16:40;99891.25;;;12.61
66113;BMP280;52893;52.870;5.822;2023-04-01T12:19:13;99850.91;;;12.39
66113;BMP280;52893;52.870;5.822;2023-04-01T12:21:45;99878.97;;;12.55
66113;BMP280;52893;52.870;5.822;2023-04-01T12:24:37;99900.03;;;12.70
66113;BMP280;52893;52.870;5.822;2023-04-01T12:27:14;99907.84;;;12.72
66113;BMP280;52893;52.870;5.822;2023-04-01T12:33:04;99907.09;;;12.71
66113;BMP280;52893;52.870;5.822;2023-04-01T12:35:45;99921.56;;;12.72
66113;BMP280;52893;52.870;5.822;2023-04-01T12:38:26;99925.22;;;12.79
66113;BMP280;52893;52.870;5.822;2023-04-01T12:41:09;99928.41;;;12.81
66113;BMP280;52893;52.870;5.822;2023-04-01T12:44:03;99941.78;;;12.86
66113;BMP280;52893;52.870;5.822;2023-04-01T12:46:40;99943.38;;;12.87
66113;BMP280;52893;52.870;5.822;2023-04-01T12:49:26;99942.44;;;12.80
66113;BMP280;52893;52.870;5.822;2023-04-01T12:52:04;99954.25;;;12.84
66113;BMP280;52893;52.870;5.822;2023-04-01T12:54:56;99958.13;;;12.83
66113;BMP280;52893;52.870;5.822;2023-04-01T12:58:00;99955.06;;;12.84
66113;BMP280;52893;52.870;5.822;2023-04-01T13:00:44;99959.66;;;12.80
66113;BMP280;52893;52.870;5.822;2023-04-01T13:03:41;99928.47;;;12.46
66113;BMP280;52893;52.870;5.822;2023-04-01T13:06:22;99975.94;;;12.73
66113;BMP280;52893;52.870;5.822;2023-04-01T13:09:00;99989.63;;;12.73
66113;BMP280;52893;52.870;5.822;2023-04-01T13:11:37;99981.06;;;12.75
66113;BMP280;52893;52.870;5.822;2023-04-01T13:14:29;99942.50;;;12.45
66113;BMP280;52893;52.870;5.822;2023-04-01T13:17:07;100000.94;;;12.72
66113;BMP280;52893;52.870;5.822;2023-04-01T13:19:43;100000.56;;;12.73
66113;BMP280;52893;52.870;5.822;2023-04-01T13:22:19;99997.84;;;12.73
66113;BMP280;52893;52.870;5.822;2023-04-01T13:24:52;100009.69;;;12.77
66113;BMP280;52893;52.870;5.822;2023-04-01T13:27:28;100010.91;;;12.80
66113;BMP280;52893;52.870;5.822;2023-04-01T13:30:00;100028.06;;;12.77
66113;BMP280;52893;52.870;5.822;2023-04-01T13:32:35;100000.03;;;12.64
66113;BMP280;52893;52.870;5.822;2023-04-01T13:35:16;100010.72;;;12.73
66113;BMP280;52893;52.870;5.822;2023-04-01T13:37:54;100034.75;;;12.79
66113;BMP280;52893;52.870;5.822;2023-04-01T13:40:36;100039.94;;;12.84
66113;BMP280;52893;52.870;5.822;2023-04-01T13:43:12;100031.59;;;12.77
66113;BMP280;52893;52.870;5.822;2023-04-01T13:46:06;100049.59;;;12.78
66113;BMP280;52893;52.870;5.822;2023-04-01T13:48:57;100047.31;;;12.80
66113;BMP280;52893;52.870;5.822;2023-04-01T14:01:05;100077.44;;;12.80
66113;BMP280;52893;52.870;5.822;2023-04-01T14:03:52;100080.88;;;12.77
66113;BMP280;52893;52.870;5.822;2023-04-01T14:06:31;100078.16;;;12.77
66113;BMP280;52893;52.870;5.822;2023-04-01T14:09:17;100090.25;;;12.76
66113;BMP280;52893;52.870;5.822;2023-04-01T14:11:55;100083.88;;;12.72
66113;BMP280;52893;52.870;5.822;2023-04-01T14:14:34;100101.84;;;12.70
66113;BMP280;52893;52.870;5.822;2023-04-01T14:17:17;100100.94;;;12.66
66113;BMP280;52893;52.870;5.822;2023-04-01T14:20:02;100101.25;;;12.61
66113;BMP280;52893;52.870;5.822;2023-04-01T14:22:39;100108.91;;;12.55
66113;BMP280;52893;52.870;5.822;2023-04-01T14:25:25;100119.38;;;12.49
66113;BMP280;52893;52.870;5.822;2023-04-01T14:28:02;100121.50;;;12.40
66113;BMP280;52893;52.870;5.822;2023-04-01T14:30:40;100131.63;;;12.40
66113;BMP280;52893;52.870;5.822;2023-04-01T14:33:25;100136.22;;;12.36
66113;BMP280;52893;52.870;5.822;2023-04-01T14:36:08;100133.75;;;12.31
66113;BMP280;52893;52.870;5.822;2023-04-01T14:38:48;100119.31;;;12.15
66113;BMP280;52893;52.870;5.822;2023-04-01T14:41:21;100158.03;;;12.32
66113;BMP280;52893;52.870;5.822;2023-04-01T14:44:05;100152.03;;;12.27
66113;BMP280;52893;52.870;5.822;2023-04-01T14:49:46;100174.53;;;12.04
66113;BMP280;52893;52.870;5.822;2023-04-01T14:52:23;100175.50;;;11.96
66113;BMP280;52893;52.870;5.822;2023-04-01T14:54:52;100183.25;;;11.94
66113;BMP280;52893;52.870;5.822;2023-04-01T14:57:23;100181.19;;;11.91
66113;BMP280;52893;52.870;5.822;2023-04-01T14:59:55;100169.19;;;11.80
66113;BMP280;52893;52.870;5.822;2023-04-01T15:02:45;100199.44;;;11.87
66113;BMP280;52893;52.870;5.822;2023-04-01T15:05:19;100211.56;;;11.86
66113;BMP280;52893;52.870;5.822;2023-04-01T15:08:05;100205.97;;;11.83
66113;BMP280;52893;52.870;5.822;2023-04-01T15:11:14;100218.03;;;11.82
66113;BMP280;52893;52.870;5.822;2023-04-01T15:14:25;100217.50;;;11.76
66113;BMP280;52893;52.870;5.822;2023-04-01T15:17:03;100231.19;;;11.76
66113;BMP280;52893;52.870;5.822;2023-04-01T15:19:41;100232.13;;;11.68
66113;BMP280;52893;52.870;5.822;2023-04-01T15:22:36;100242.16;;;11.64
66113;BMP280;52893;52.870;5.822;2023-04-01T15:25:21;100247.50;;;11.60
66113;BMP280;52893;52.870;5.822;2023-04-01T15:30:39;100262.09;;;11.52
66113;BMP280;52893;52.870;5.822;2023-04-01T15:33:22;100262.44;;;11.51
66113;BMP280;52893;52.870;5.822;2023-04-01T15:35:56;100261.88;;;11.45
66113;BMP280;52893;52.870;5.822;2023-04-01T15:38:32;100271.81;;;11.38
66113;BMP280;52893;52.870;5.822;2023-04-01T15:41:09;100280.69;;;11.35
66113;BMP280;52893;52.870;5.822;2023-04-01T15:43:41;100282.06;;;11.29
66113;BMP280;52893;52.870;5.822;2023-04-01T15:46:21;100291.41;;;11.28
66113;BMP280;52893;52.870;5.822;2023-04-01T15:49:00;100293.22;;;11.24
66113;BMP280;52893;52.870;5.822;2023-04-01T15:51:49;100301.66;;;11.19
66113;BMP280;52893;52.870;5.822;2023-04-01T15:54:59;100308.25;;;11.18
66113;BMP280;52893;52.870;5.822;2023-04-01T15:57:35;100313.56;;;11.14
66113;BMP280;52893;52.870;5.822;2023-04-01T16:00:19;100315.50;;;11.13
66113;BMP280;52893;52.870;5.822;2023-04-01T16:02:49;100323.63;;;11.10
66113;BMP280;52893;52.870;5.822;2023-04-01T16:05:30;100333.28;;;11.07
66113;BMP280;52893;52.870;5.822;2023-04-01T16:08:15;100317.78;;;10.87
66113;BMP280;52893;52.870;5.822;2023-04-01T16:11:09;100342.69;;;10.98
66113;BMP280;52893;52.870;5.822;2023-04-01T16:13:55;100352.63;;;11.02
66113;BMP280;52893;52.870;5.822;2023-04-01T16:16:34;100357.84;;;10.95